Time;durP1;ratioP1;P1;durP2;ratioP2;P2;SDS_P1;SDS_P2;PMS_P1;PMS_P2;Temp;Humidity;BMP_temperature;BMP_pressure;BME280_temperature;BME280_humidity;BME280_pressure;Samples;Min_cycle;Max_cycle;Signal;HPM_P1;HPM_P2
2023/07/03 00:00:17;;;;;;;7.60;1.63;;;12.30;99.90;;;;;;4855221;29;20064;-64
2023/07/03 00:02:52;;;;;;;6.45;1.25;;;12.20;99.90;;;;;;4855239;29;20050;-65
2023/07/03 00:05:21;;;;;;;6.20;1.38;;;12.20;99.90;;;;;;4849978;29;20037;-60
2023/07/03 00:07:50;;;;;;;7.18;1.10;;;12.20;99.90;;;;;;4853342;29;20084;-65
2023/07/03 00:10:18;;;;;;;6.55;1.45;;;12.00;99.90;;;;;;4850336;29;20042;-64
2023/07/03 00:12:45;;;;;;;5.30;1.13;;;12.00;99.90;;;;;;4849510;29;20526;-65
2023/07/03 00:15:14;;;;;;;9.68;2.08;;;12.00;99.90;;;;;;4849719;29;20497;-67
2023/07/03 00:17:44;;;;;;;10.70;1.70;;;11.90;99.90;;;;;;4851927;29;20502;-62
2023/07/03 00:20:14;;;;;;;2.67;1.88;;;11.90;99.90;;;;;;4847274;29;20062;-71
2023/07/03 00:22:43;;;;;;;9.20;1.50;;;11.80;99.90;;;;;;4849266;29;20053;-65
2023/07/03 00:25:11;;;;;;;7.35;1.45;;;11.80;99.90;;;;;;4849925;29;20407;-70
2023/07/03 00:27:39;;;;;;;8.00;1.45;;;12.20;99.90;;;;;;4850774;29;20053;-69
2023/07/03 00:30:07;;;;;;;4.25;1.42;;;11.70;99.90;;;;;;4847352;29;20049;-69
2023/07/03 00:32:35;;;;;;;4.85;1.40;;;11.70;99.90;;;;;;4846741;29;20046;-67
2023/07/03 00:35:03;;;;;;;5.43;1.23;;;11.70;99.90;;;;;;4863244;29;20534;-67
2023/07/03 00:37:31;;;;;;;6.30;1.23;;;11.60;99.90;;;;;;4848573;29;20060;-68
2023/07/03 00:39:59;;;;;;;8.63;1.13;;;11.60;99.90;;;;;;4854146;29;20076;-65
2023/07/03 00:42:28;;;;;;;2.40;0.93;;;11.60;99.90;;;;;;4856947;29;20050;-64
2023/07/03 00:44:57;;;;;;;6.65;1.50;;;11.60;99.90;;;;;;4852369;29;20046;-68
2023/07/03 00:47:26;;;;;;;3.45;0.90;;;11.60;99.90;;;;;;4863277;29;20072;-63
2023/07/03 00:49:54;;;;;;;10.30;1.70;;;11.50;99.90;;;;;;4848437;29;20437;-68
2023/07/03 00:52:22;;;;;;;5.28;1.27;;;11.60;99.90;;;;;;4849431;29;20052;-61
2023/07/03 00:54:49;;;;;;;8.45;1.48;;;11.50;99.90;;;;;;4847996;29;20060;-63
2023/07/03 00:57:18;;;;;;;1.27;0.98;;;11.60;99.90;;;;;;4849729;29;20360;-60
2023/07/03 00:59:45;;;;;;;4.85;1.42;;;11.60;99.90;;;;;;4848623;29;20045;-65
2023/07/03 01:02:25;;;;;;;4.97;2.00;;;11.60;99.90;;;;;;4847163;29;20053;-64
2023/07/03 01:05:05;;;;;;;5.38;1.00;;;11.60;99.90;;;;;;4843114;29;20061;-65
2023/07/03 01:07:35;;;;;;;6.57;1.13;;;11.60;99.90;;;;;;4845141;29;20057;-61
2023/07/03 01:10:10;;;;;;;3.08;0.60;;;11.60;99.90;;;;;;4847315;29;20034;-63
2023/07/03 01:12:45;;;;;;;2.00;0.85;;;11.60;99.90;;;;;;4848043;29;20060;-62
2023/07/03 01:15:19;;;;;;;6.95;1.00;;;11.60;99.90;;;;;;4848483;29;20045;-65
2023/07/03 01:17:53;;;;;;;7.45;1.38;;;11.60;99.90;;;;;;4848746;29;20061;-61
2023/07/03 01:20:23;;;;;;;4.88;1.45;;;11.60;99.90;;;;;;4849584;29;20052;-65
2023/07/03 01:23:02;;;;;;;2.45;0.93;;;11.60;99.90;;;;;;4863873;29;20054;-62
2023/07/03 01:25:32;;;;;;;5.00;1.10;;;11.60;99.90;;;;;;4853029;29;20041;-63
2023/07/03 01:28:03;;;;;;;4.35;1.05;;;11.60;99.90;;;;;;4847711;29;20046;-63
2023/07/03 01:30:33;;;;;;;8.32;1.00;;;11.60;99.90;;;;;;4830612;29;20056;-61
2023/07/03 01:33:03;;;;;;;3.60;0.90;;;11.50;99.90;;;;;;4833601;29;20050;-60
2023/07/03 01:35:32;;;;;;;6.57;0.90;;;11.50;99.90;;;;;;4850721;29;20427;-65
2023/07/03 01:38:01;;;;;;;3.58;1.00;;;11.50;99.90;;;;;;4850838;29;20053;-59
2023/07/03 01:40:30;;;;;;;7.70;1.13;;;11.50;99.90;;;;;;4855062;29;20042;-61
2023/07/03 01:42:58;;;;;;;5.15;1.33;;;11.50;99.90;;;;;;4874324;29;20049;-61
2023/07/03 01:45:26;;;;;;;3.03;0.77;;;11.50;99.90;;;;;;4849007;29;20540;-64
2023/07/03 01:47:54;;;;;;;5.45;1.10;;;11.50;99.90;;;;;;4853321;29;20413;-62
2023/07/03 01:50:26;;;;;;;4.13;0.98;;;11.50;99.90;;;;;;4857542;29;20058;-61
2023/07/03 01:52:59;;;;;;;4.05;1.10;;;11.50;99.90;;;;;;4855964;29;20057;-65
2023/07/03 01:55:43;;;;;;;4.80;1.05;;;11.50;99.90;;;;;;4853886;29;20045;-67
2023/07/03 01:58:39;;;;;;;6.40;0.82;;;11.50;99.90;;;;;;4849585;29;20060;-69
2023/07/03 02:01:11;;;;;;;3.33;0.90;;;11.50;99.90;;;;;;4862525;29;20038;-69
2023/07/03 02:03:54;;;;;;;4.05;1.10;;;11.50;99.90;;;;;;4864965;29;20048;-69
2023/07/03 02:06:25;;;;;;;4.80;1.50;;;11.50;99.90;;;;;;4852728;29;20053;-69
2023/07/03 02:08:55;;;;;;;3.92;0.98;;;11.50;99.90;;;;;;4850450;29;20057;-61
2023/07/03 02:11:23;;;;;;;4.75;0.77;;;11.50;99.90;;;;;;4851953;29;20061;-61
2023/07/03 02:13:55;;;;;;;6.57;0.70;;;11.50;99.90;;;;;;4855195;29;20042;-60
2023/07/03 02:16:29;;;;;;;4.60;1.17;;;11.50;99.90;;;;;;4865827;29;20413;-62
2023/07/03 02:19:01;;;;;;;3.47;0.80;;;11.50;99.90;;;;;;4856429;29;20049;-63
2023/07/03 02:21:29;;;;;;;4.63;0.70;;;11.50;99.90;;;;;;4857622;29;20050;-61
2023/07/03 02:23:56;;;;;;;3.13;0.60;;;11.50;99.90;;;;;;4839912;29;20048;-64
2023/07/03 02:26:24;;;;;;;4.80;0.70;;;11.50;99.90;;;;;;4857828;29;20045;-67
2023/07/03 02:28:52;;;;;;;6.25;0.82;;;11.50;99.90;;;;;;4873127;29;20053;-69
2023/07/03 02:31:19;;;;;;;2.13;1.02;;;11.50;99.90;;;;;;4857953;29;20061;-69
2023/07/03 02:33:48;;;;;;;4.80;0.70;;;11.50;99.90;;;;;;4856422;29;20060;-65
2023/07/03 02:36:16;;;;;;;5.70;1.00;;;11.50;99.90;;;;;;4855027;29;20053;-67
2023/07/03 02:38:44;;;;;;;4.00;0.90;;;11.60;99.90;;;;;;4855080;29;20049;-60
2023/07/03 02:41:12;;;;;;;4.70;0.88;;;11.60;99.90;;;;;;4857600;29;20038;-70
2023/07/03 02:43:39;;;;;;;5.25;0.70;;;11.60;99.90;;;;;;4857914;29;20064;-68
2023/07/03 02:46:08;;;;;;;4.72;1.10;;;11.60;99.90;;;;;;4853894;29;20037;-68
2023/07/03 02:48:37;;;;;;;2.90;1.00;;;11.60;99.90;;;;;;4859413;29;20045;-68
2023/07/03 02:51:04;;;;;;;5.68;0.90;;;11.60;99.90;;;;;;4856463;29;20045;-67
2023/07/03 02:53:33;;;;;;;3.67;1.95;;;11.60;99.90;;;;;;4854179;29;20054;-62
2023/07/03 02:56:09;;;;;;;2.40;0.73;;;11.60;99.90;;;;;;4867273;29;20050;-69
2023/07/03 02:58:39;;;;;;;5.72;1.35;;;11.60;99.90;;;;;;4867985;29;20046;-64
2023/07/03 03:01:10;;;;;;;5.68;0.73;;;11.60;99.90;;;;;;4870800;29;20064;-70
2023/07/03 03:03:38;;;;;;;2.30;0.68;;;11.60;99.90;;;;;;4853550;29;20056;-70
2023/07/03 03:06:06;;;;;;;3.63;0.88;;;11.50;99.90;;;;;;4853527;29;20057;-67
2023/07/03 03:08:34;;;;;;;2.20;0.60;;;11.50;99.90;;;;;;4839967;29;20061;-70
2023/07/03 03:11:03;;;;;;;5.15;1.15;;;11.40;99.90;;;;;;4859139;29;20045;-67
2023/07/03 03:13:32;;;;;;;5.90;1.02;;;11.40;99.90;;;;;;4859151;29;20073;-65
2023/07/03 03:16:00;;;;;;;3.53;0.73;;;11.40;99.90;;;;;;4839528;29;20064;-71
2023/07/03 03:18:28;;;;;;;3.30;0.95;;;11.40;99.90;;;;;;4853491;29;20402;-65
2023/07/03 03:20:56;;;;;;;4.97;0.95;;;11.40;99.90;;;;;;4859826;29;20049;-69
2023/07/03 03:23:24;;;;;;;4.57;1.17;;;11.40;99.90;;;;;;4851887;29;20049;-70
2023/07/03 03:25:52;;;;;;;9.40;1.08;;;11.40;99.90;;;;;;4869751;29;20053;-69
2023/07/03 03:28:20;;;;;;;7.07;1.00;;;11.40;99.90;;;;;;4872638;29;20041;-69
2023/07/03 03:30:48;;;;;;;6.93;1.45;;;11.40;99.90;;;;;;4853146;29;20061;-69
2023/07/03 03:33:16;;;;;;;5.22;0.90;;;11.40;99.90;;;;;;4852054;29;20054;-63
2023/07/03 03:35:45;;;;;;;4.95;1.13;;;11.40;99.90;;;;;;4853329;29;20037;-61
2023/07/03 03:38:14;;;;;;;;;;;11.40;99.90;;;;;;4852682;29;20398;-60
2023/07/03 03:40:53;;;;;;;3.30;0.70;;;11.30;99.90;;;;;;4859896;29;19931;-61
2023/07/03 03:43:23;;;;;;;4.55;0.70;;;11.30;99.90;;;;;;4855632;29;20050;-60
2023/07/03 03:45:59;;;;;;;4.00;0.93;;;11.20;99.90;;;;;;4858498;29;20078;-59
2023/07/03 03:48:32;;;;;;;5.15;0.95;;;11.20;99.90;;;;;;4856444;29;20434;-64
2023/07/03 03:51:03;;;;;;;6.57;0.88;;;11.20;99.90;;;;;;4872218;29;20056;-68
2023/07/03 03:53:32;;;;;;;;;;;11.10;99.90;;;;;;4857327;29;20050;-68
2023/07/03 03:56:00;;;;;;;4.35;1.00;;;11.10;99.90;;;;;;4847346;29;19931;-64
2023/07/03 03:58:30;;;;;;;10.40;1.10;;;11.10;99.90;;;;;;4852679;29;20054;-61
2023/07/03 04:00:58;;;;;;;6.13;0.73;;;11.00;99.90;;;;;;4851746;29;20494;-62
2023/07/03 04:03:26;;;;;;;7.80;1.15;;;11.10;99.90;;;;;;4852704;29;20486;-61
2023/07/03 04:05:53;;;;;;;5.85;1.15;;;11.10;99.90;;;;;;4853026;29;20056;-66
2023/07/03 04:08:21;;;;;;;4.50;1.45;;;11.10;99.90;;;;;;4855927;29;20041;-63
2023/07/03 04:10:49;;;;;;;4.60;0.85;;;11.20;99.90;;;;;;4857202;29;20057;-63
2023/07/03 04:13:17;;;;;;;9.95;1.00;;;11.10;99.90;;;;;;4857632;29;20064;-60
2023/07/03 04:16:04;;;;;;;4.88;0.70;;;11.20;99.90;;;;;;4853653;29;20044;-64
2023/07/03 04:18:32;;;;;;;5.20;1.10;;;11.20;99.90;;;;;;4851656;29;20536;-59
2023/07/03 04:21:00;;;;;;;7.68;1.08;;;11.20;99.90;;;;;;4858118;29;20056;-61
2023/07/03 04:23:29;;;;;;;1.58;0.63;;;11.20;99.90;;;;;;4858958;29;20053;-60
2023/07/03 04:25:58;;;;;;;5.33;1.00;;;11.20;99.90;;;;;;4853976;29;20842;-63
2023/07/03 04:28:25;;;;;;;6.15;1.17;;;11.20;99.90;;;;;;4852780;29;20312;-61
2023/07/03 04:30:53;;;;;;;4.25;0.85;;;11.30;99.90;;;;;;4854339;29;20045;-62
2023/07/03 04:33:21;;;;;;;6.20;1.45;;;11.30;99.90;;;;;;4854783;29;20041;-63
2023/07/03 04:35:49;;;;;;;7.35;1.60;;;11.20;99.90;;;;;;4859101;29;20509;-63
2023/07/03 04:38:17;;;;;;;5.40;1.00;;;11.30;99.90;;;;;;4856787;29;20506;-64
2023/07/03 04:40:47;;;;;;;2.28;0.80;;;11.40;99.90;;;;;;4853397;29;20057;-68
2023/07/03 04:43:15;;;;;;;5.78;1.27;;;11.40;99.90;;;;;;4842678;29;20532;-63
2023/07/03 04:45:55;;;;;;;5.13;0.77;;;11.40;99.90;;;;;;4840808;29;20058;-60
2023/07/03 04:48:24;;;;;;;3.60;0.80;;;11.50;99.90;;;;;;4841468;29;20042;-59
2023/07/03 04:50:52;;;;;;;4.93;1.50;;;11.50;99.90;;;;;;4850033;29;20053;-60
2023/07/03 04:53:20;;;;;;;4.78;0.90;;;11.50;99.90;;;;;;4853637;29;20045;-61
2023/07/03 04:55:50;;;;;;;9.07;1.27;;;11.60;99.90;;;;;;4849523;29;20061;-61
2023/07/03 04:58:19;;;;;;;6.20;1.20;;;11.60;99.90;;;;;;4849317;29;20300;-62
2023/07/03 05:00:49;;;;;;;4.55;1.05;;;11.70;99.90;;;;;;4848465;29;20065;-60
2023/07/03 05:03:18;;;;;;;8.45;1.45;;;11.70;99.90;;;;;;4842625;29;20061;-61
2023/07/03 05:05:46;;;;;;;4.15;1.40;;;11.80;99.90;;;;;;4844611;29;20058;-65
2023/07/03 05:08:14;;;;;;;4.53;0.90;;;11.80;99.90;;;;;;4846652;29;20045;-62
2023/07/03 05:10:42;;;;;;;11.50;1.20;;;11.80;99.90;;;;;;4843838;29;20050;-63
2023/07/03 05:13:10;;;;;;;2.30;0.73;;;11.70;99.90;;;;;;4844779;29;20057;-61
2023/07/03 05:15:38;;;;;;;4.47;1.10;;;11.80;99.90;;;;;;4853269;29;20084;-62
2023/07/03 05:18:07;;;;;;;4.63;0.73;;;11.80;99.90;;;;;;4834189;29;20046;-65
2023/07/03 05:20:35;;;;;;;3.35;0.85;;;11.80;99.90;;;;;;4855294;29;20060;-64
2023/07/03 05:23:03;;;;;;;11.88;2.10;;;11.90;99.90;;;;;;4851512;29;20046;-65
2023/07/03 05:25:31;;;;;;;3.90;0.75;;;11.90;99.90;;;;;;4855199;29;20049;-61
2023/07/03 05:27:59;;;;;;;6.95;0.90;;;12.00;99.90;;;;;;4861070;29;20056;-65
2023/07/03 05:30:26;;;;;;;4.68;1.17;;;12.10;99.90;;;;;;4872614;29;20049;-65
2023/07/03 05:32:54;;;;;;;10.30;1.63;;;12.10;99.90;;;;;;4839119;29;20061;-66
2023/07/03 05:35:22;;;;;;;6.43;1.83;;;12.20;99.90;;;;;;4856401;29;20057;-66
2023/07/03 05:37:50;;;;;;;7.22;1.00;;;12.20;99.90;;;;;;4856203;29;20410;-67
2023/07/03 05:40:18;;;;;;;10.60;1.05;;;12.20;99.90;;;;;;4856084;29;20041;-61
2023/07/03 05:42:46;;;;;;;5.43;1.25;;;12.20;99.90;;;;;;4854521;29;20060;-62
2023/07/03 05:45:13;;;;;;;5.43;1.40;;;12.10;99.90;;;;;;4855755;29;20051;-63
2023/07/03 05:47:41;;;;;;;5.45;1.30;;;12.10;99.90;;;;;;4850519;29;20383;-60
2023/07/03 05:50:10;;;;;;;7.22;1.23;;;12.00;99.90;;;;;;4850735;29;20486;-63
2023/07/03 05:52:40;;;;;;;8.82;1.15;;;11.90;99.90;;;;;;4855409;29;20140;-63
2023/07/03 05:55:08;;;;;;;5.80;1.00;;;11.90;99.90;;;;;;4856163;29;20056;-63
2023/07/03 05:57:36;;;;;;;11.05;1.42;;;11.90;99.90;;;;;;4856952;29;20058;-61
2023/07/03 06:00:14;;;;;;;5.20;0.95;;;11.80;99.90;;;;;;4857323;29;20072;-60
2023/07/03 06:02:47;;;;;;;7.20;1.30;;;11.80;99.90;;;;;;4854446;29;20576;-61
2023/07/03 06:05:15;;;;;;;;;;;11.90;99.90;;;;;;4846011;29;20054;-60
2023/07/03 06:07:43;;;;;;;6.20;0.90;;;11.90;99.90;;;;;;4855636;29;19950;-63
2023/07/03 06:10:12;;;;;;;6.88;1.10;;;11.90;99.90;;;;;;4853486;29;20046;-61
2023/07/03 06:12:41;;;;;;;10.43;1.50;;;12.00;99.90;;;;;;4856777;29;20061;-65
2023/07/03 06:15:10;;;;;;;11.23;1.38;;;12.00;99.90;;;;;;4869809;29;20045;-61
2023/07/03 06:17:40;;;;;;;5.90;0.90;;;12.10;99.90;;;;;;4852464;29;20045;-62
2023/07/03 06:20:08;;;;;;;;;;;12.10;99.90;;;;;;4834675;29;20053;-61
2023/07/03 06:22:36;;;;;;;9.73;1.00;;;12.20;99.90;;;;;;4853207;29;19928;-62
2023/07/03 06:25:06;;;;;;;2.65;0.93;;;12.20;99.90;;;;;;4853299;29;20061;-63
2023/07/03 06:27:34;;;;;;;7.77;1.30;;;12.30;99.90;;;;;;4854946;29;20054;-61
2023/07/03 06:30:03;;;;;;;10.10;1.10;;;12.30;99.90;;;;;;4855621;29;20654;-61
2023/07/03 06:32:31;;;;;;;9.75;1.52;;;12.40;99.90;;;;;;4853980;29;20046;-60
2023/07/03 06:34:59;;;;;;;10.38;1.23;;;12.40;99.90;;;;;;4860189;29;20065;-64
2023/07/03 06:37:31;;;;;;;12.05;1.55;;;12.50;99.90;;;;;;4838168;29;20406;-61
2023/07/03 06:39:58;;;;;;;5.78;1.27;;;12.50;99.90;;;;;;4852241;29;20053;-61
2023/07/03 06:42:26;;;;;;;8.90;1.20;;;12.60;99.90;;;;;;4848924;29;20053;-59
2023/07/03 06:44:59;;;;;;;9.48;1.05;;;12.60;99.90;;;;;;4838980;29;20410;-62
2023/07/03 06:47:27;;;;;;;4.53;1.52;;;12.70;99.90;;;;;;4835862;29;20049;-61
2023/07/03 06:49:55;;;;;;;5.20;1.00;;;12.80;99.90;;;;;;4834532;29;20058;-60
2023/07/03 06:52:23;;;;;;;11.52;1.30;;;12.70;99.90;;;;;;4841057;29;20452;-62
2023/07/03 06:54:51;;;;;;;5.97;1.13;;;12.80;99.90;;;;;;4835387;29;20057;-61
2023/07/03 06:57:18;;;;;;;6.82;1.20;;;12.90;99.90;;;;;;4835013;29;20057;-64
2023/07/03 06:59:46;;;;;;;10.57;1.60;;;12.90;99.90;;;;;;4833963;29;20057;-65
2023/07/03 07:02:14;;;;;;;8.82;1.20;;;13.00;99.90;;;;;;4840196;29;20078;-67
2023/07/03 07:04:44;;;;;;;14.80;1.67;;;13.10;99.90;;;;;;4851133;29;20042;-66
2023/07/03 07:07:11;;;;;;;5.90;1.10;;;13.10;99.90;;;;;;4842015;29;20053;-65
2023/07/03 07:09:39;;;;;;;14.38;1.85;;;13.20;99.90;;;;;;4850079;29;20050;-71
2023/07/03 07:12:07;;;;;;;9.40;1.30;;;13.20;99.90;;;;;;4841573;29;20073;-61
2023/07/03 07:14:35;;;;;;;7.82;1.17;;;13.20;99.90;;;;;;4866556;29;20446;-68
2023/07/03 07:17:04;;;;;;;10.82;1.25;;;13.30;99.90;;;;;;4845805;29;20057;-63
2023/07/03 07:19:33;;;;;;;9.38;1.80;;;13.40;99.90;;;;;;4855365;29;20046;-70
2023/07/03 07:22:01;;;;;;;7.15;1.52;;;13.40;99.90;;;;;;4845270;29;20057;-70
2023/07/03 07:24:29;;;;;;;7.55;1.40;;;13.60;99.90;;;;;;4862109;29;20045;-64
2023/07/03 07:26:58;;;;;;;4.53;1.00;;;13.70;99.90;;;;;;4853211;29;20056;-65
2023/07/03 07:29:26;;;;;;;6.70;1.42;;;13.80;99.90;;;;;;4851366;29;20050;-68
2023/07/03 07:31:55;;;;;;;7.03;1.52;;;13.90;99.90;;;;;;4853987;29;20057;-64
2023/07/03 07:34:24;;;;;;;6.83;1.13;;;14.00;99.90;;;;;;4847013;29;20405;-65
2023/07/03 07:36:52;;;;;;;6.50;1.58;;;14.10;99.90;;;;;;4838755;29;20308;-67
2023/07/03 07:39:20;;;;;;;10.55;1.58;;;14.20;99.90;;;;;;4842103;29;20061;-70
2023/07/03 07:41:51;;;;;;;13.13;1.60;;;14.20;99.90;;;;;;4843636;29;20149;-70
2023/07/03 07:44:19;;;;;;;4.55;1.23;;;14.40;99.90;;;;;;4857863;29;20053;-68
2023/07/03 07:46:47;;;;;;;10.77;1.65;;;14.50;99.90;;;;;;4839429;29;20058;-61
2023/07/03 07:49:15;;;;;;;11.05;1.30;;;14.80;99.90;;;;;;4854933;29;20042;-64
2023/07/03 07:51:42;;;;;;;10.05;1.50;;;14.90;99.90;;;;;;4848242;29;20522;-67
2023/07/03 07:54:10;;;;;;;7.57;1.52;;;15.00;99.90;;;;;;4869681;29;20065;-65
2023/07/03 07:56:37;;;;;;;7.93;1.10;;;15.00;99.90;;;;;;4858052;29;20045;-63
2023/07/03 07:59:05;;;;;;;7.80;1.52;;;15.00;99.90;;;;;;4857840;29;20053;-65
2023/07/03 08:01:33;;;;;;;9.57;1.52;;;15.00;99.90;;;;;;4856200;29;20057;-67
2023/07/03 08:04:00;;;;;;;8.60;1.40;;;15.00;99.90;;;;;;4857178;29;20050;-58
2023/07/03 08:06:28;;;;;;;10.80;2.15;;;14.90;99.90;;;;;;4864556;29;20049;-58
2023/07/03 08:08:56;;;;;;;8.77;1.25;;;14.80;99.90;;;;;;4853419;29;20045;-59
2023/07/03 08:11:25;;;;;;;10.88;1.90;;;14.90;99.90;;;;;;4857312;29;20053;-62
2023/07/03 08:13:53;;;;;;;7.15;1.42;;;14.90;99.90;;;;;;4859570;29;20049;-62
2023/07/03 08:16:20;;;;;;;10.77;1.10;;;14.90;99.90;;;;;;4856662;29;20049;-58
2023/07/03 08:18:48;;;;;;;11.27;1.52;;;14.90;99.90;;;;;;4857075;29;20377;-58
2023/07/03 08:21:16;;;;;;;14.27;1.98;;;14.80;99.90;;;;;;4850788;29;20050;-59
2023/07/03 08:23:44;;;;;;;13.07;1.13;;;14.80;99.90;;;;;;4866664;29;20482;-61
2023/07/03 08:26:20;;;;;;;5.97;1.63;;;14.70;99.90;;;;;;4857436;29;20046;-61
2023/07/03 08:28:48;;;;;;;8.52;1.80;;;14.70;99.90;;;;;;4855840;29;20064;-59
2023/07/03 08:31:16;;;;;;;7.65;1.30;;;14.60;99.90;;;;;;4855606;29;20527;-59
2023/07/03 08:33:44;;;;;;;10.32;1.42;;;14.70;99.90;;;;;;4855997;29;20053;-60
2023/07/03 08:36:11;;;;;;;9.07;1.85;;;14.70;99.90;;;;;;4850632;29;20061;-59
2023/07/03 08:38:42;;;;;;;8.60;1.48;;;14.70;99.90;;;;;;4848999;29;20045;-59
2023/07/03 08:41:14;;;;;;;11.13;1.65;;;14.80;99.90;;;;;;4857315;29;20160;-59
2023/07/03 08:43:49;;;;;;;6.05;1.15;;;14.90;99.90;;;;;;4861462;29;20516;-65
2023/07/03 08:46:23;;;;;;;7.88;1.20;;;15.00;99.90;;;;;;4856738;29;20049;-62
2023/07/03 08:48:54;;;;;;;6.43;1.10;;;15.00;99.90;;;;;;4856683;29;20045;-58
2023/07/03 08:51:28;;;;;;;9.88;2.50;;;15.00;99.90;;;;;;4852822;29;20065;-59
2023/07/03 08:54:03;;;;;;;6.30;1.23;;;15.00;99.90;;;;;;4853169;29;20530;-59
2023/07/03 08:56:33;;;;;;;5.03;1.05;;;15.00;99.90;;;;;;4857064;29;20057;-58
2023/07/03 08:59:03;;;;;;;9.13;1.15;;;14.90;99.90;;;;;;4855557;29;20405;-58
2023/07/03 09:01:35;;;;;;;;;;;14.80;99.90;;;;;;4856862;29;20053;-58
2023/07/03 09:04:21;;;;;;;12.65;1.85;;;14.70;99.90;;;;;;4856273;29;19924;-62
2023/07/03 09:10:57;;;;;;;13.88;1.98;;;14.50;99.90;;;;;;4850928;29;20040;-64
2023/07/03 09:13:39;;;;;;;12.90;2.00;;;14.40;99.90;;;;;;4860696;29;20050;-62
2023/07/03 09:16:21;;;;;;;8.13;1.45;;;14.40;99.90;;;;;;4845482;29;20057;-61
2023/07/03 09:19:08;;;;;;;10.13;1.70;;;14.40;99.90;;;;;;4856163;29;20398;-60
2023/07/03 09:21:38;;;;;;;9.73;1.55;;;14.40;99.90;;;;;;4852804;29;20134;-61
2023/07/03 09:24:14;;;;;;;10.98;1.67;;;14.50;99.90;;;;;;4854411;29;20049;-59
2023/07/03 09:26:52;;;;;;;9.68;1.80;;;14.60;99.90;;;;;;4853716;29;20041;-61
2023/07/03 09:29:21;;;;;;;12.32;1.98;;;14.60;99.90;;;;;;4854079;29;20064;-62
2023/07/03 09:31:49;;;;;;;12.52;1.88;;;14.60;99.90;;;;;;4852202;29;20069;-62
2023/07/03 09:34:20;;;;;;;10.77;1.92;;;14.60;99.90;;;;;;4852439;29;20129;-60
2023/07/03 09:37:00;;;;;;;13.95;2.22;;;14.50;99.90;;;;;;4850637;29;20054;-61
2023/07/03 09:39:31;;;;;;;10.07;1.40;;;14.40;99.90;;;;;;4849609;29;20045;-60
2023/07/03 09:42:08;;;;;;;12.90;1.67;;;14.30;99.90;;;;;;4859366;29;20061;-63
2023/07/03 09:44:41;;;;;;;19.88;2.63;;;14.10;99.90;;;;;;4836568;29;20038;-72
2023/07/03 09:47:26;;;;;;;13.10;1.83;;;14.00;99.90;;;;;;4842481;29;20048;-65
2023/07/03 09:50:01;;;;;;;13.25;1.77;;;14.00;99.90;;;;;;4854107;29;20409;-65
2023/07/03 09:52:30;;;;;;;7.55;1.90;;;13.90;99.90;;;;;;4850988;29;20058;-71
2023/07/03 09:55:02;;;;;;;12.95;1.80;;;13.90;99.90;;;;;;4856437;29;20053;-68
2023/07/03 09:57:34;;;;;;;7.18;0.90;;;13.90;99.90;;;;;;4856118;29;20057;-65
2023/07/03 10:00:10;;;;;;;11.45;1.75;;;13.90;99.90;;;;;;4855916;29;20529;-64
2023/07/03 10:02:39;;;;;;;9.60;1.30;;;14.00;99.90;;;;;;4851089;29;20041;-70
2023/07/03 10:05:19;;;;;;;7.47;1.98;;;14.00;99.90;;;;;;4851343;29;20061;-70
2023/07/03 10:07:55;;;;;;;8.57;1.45;;;14.10;99.90;;;;;;4845952;29;20539;-69
2023/07/03 10:10:23;;;;;;;7.47;1.95;;;14.10;99.90;;;;;;4855862;29;20049;-73
2023/07/03 10:13:16;;;;;;;7.82;1.80;;;14.20;99.90;;;;;;4859458;29;20061;-69
2023/07/03 10:15:45;;;;;;;10.60;1.40;;;14.30;99.90;;;;;;4853654;29;20046;-70
2023/07/03 10:18:24;;;;;;;7.50;1.35;;;14.40;99.90;;;;;;4853566;29;20072;-69
2023/07/03 10:20:52;;;;;;;;;;;14.60;99.90;;;;;;4850624;29;20053;-70
2023/07/03 10:23:33;;;;;;;7.30;2.50;;;14.70;99.90;;;;;;4849941;29;19928;-69
2023/07/03 10:26:04;;;;;;;11.45;1.70;;;14.80;99.90;;;;;;4855605;29;20057;-62
2023/07/03 10:28:37;;;;;;;7.38;1.50;;;14.80;99.90;;;;;;4855872;29;20049;-65
2023/07/03 10:31:18;;;;;;;8.57;1.80;;;14.90;99.90;;;;;;4869645;29;20052;-68
2023/07/03 10:33:48;;;;;;;7.05;1.75;;;14.90;99.90;;;;;;4855068;29;20052;-64
2023/07/03 10:36:24;;;;;;;10.35;1.83;;;14.90;99.90;;;;;;4853238;29;20050;-64
2023/07/03 10:39:01;;;;;;;6.90;2.65;;;14.90;99.90;;;;;;4846113;29;20505;-69
2023/07/03 10:41:49;;;;;;;10.65;2.00;;;14.90;99.90;;;;;;4857287;29;20061;-62
2023/07/03 10:44:23;;;;;;;6.93;2.05;;;15.10;99.90;;;;;;4858999;29;20045;-62
2023/07/03 10:47:13;;;;;;;7.68;1.45;;;15.20;99.90;;;;;;4859057;29;20053;-66
2023/07/03 10:49:41;;;;;;;13.77;1.83;;;15.30;99.90;;;;;;4857216;29;20438;-61
2023/07/03 10:52:23;;;;;;;5.03;1.23;;;15.40;99.90;;;;;;4857896;29;20053;-69
2023/07/03 10:54:52;;;;;;;5.70;1.65;;;15.40;99.90;;;;;;4858794;29;20053;-67
2023/07/03 11:01:48;;;;;;;10.13;1.80;;;15.90;99.90;;;;;;4852957;29;20061;-67
2023/07/03 11:04:21;;;;;;;9.32;1.33;;;16.10;99.90;;;;;;4863328;29;20061;-67
2023/07/03 11:06:58;;;;;;;5.80;1.05;;;16.20;99.90;;;;;;4857325;29;20049;-65
2023/07/03 11:09:39;;;;;;;9.05;1.23;;;16.30;99.90;;;;;;4857965;29;20556;-62
2023/07/03 11:12:28;;;;;;;6.15;1.45;;;16.20;99.90;;;;;;4857086;29;20061;-69
2023/07/03 11:15:14;;;;;;;6.05;1.58;;;16.20;99.90;;;;;;4858636;29;20049;-69
2023/07/03 11:17:55;;;;;;;7.68;1.20;;;16.10;99.90;;;;;;4858609;29;20050;-66
2023/07/03 11:20:36;;;;;;;9.35;2.00;;;16.10;99.90;;;;;;4840269;29;20049;-68
2023/07/03 11:23:20;;;;;;;4.97;1.10;;;16.00;99.90;;;;;;4839997;29;20068;-71
2023/07/03 11:26:15;;;;;;;7.03;1.23;;;15.90;99.90;;;;;;4847347;29;20060;-63
2023/07/03 11:28:52;;;;;;;5.90;0.93;;;15.70;99.90;;;;;;4855646;29;20058;-75
2023/07/03 11:31:20;;;;;;;6.95;1.30;;;15.30;99.90;;;;;;4858387;29;20056;-71
2023/07/03 11:33:51;;;;;;;7.20;1.60;;;15.00;99.90;;;;;;4858027;29;20482;-71
2023/07/03 11:36:33;;;;;;;6.30;1.45;;;14.70;99.90;;;;;;4858400;29;20528;-62
2023/07/03 11:39:29;;;;;;;9.95;1.52;;;14.50;99.90;;;;;;4853696;29;20076;-71
2023/07/03 11:42:00;;;;;;;8.00;1.33;;;14.40;99.90;;;;;;4857812;29;20038;-66
2023/07/03 11:44:39;;;;;;;10.18;1.52;;;14.40;99.90;;;;;;4858154;29;20045;-61
2023/07/03 11:47:11;;;;;;;5.63;1.17;;;14.40;99.90;;;;;;4857907;29;20050;-61
2023/07/03 11:50:08;;;;;;;8.48;1.35;;;14.50;99.90;;;;;;4858112;29;20525;-60
2023/07/03 11:52:40;;;;;;;6.43;0.93;;;14.50;99.90;;;;;;4867899;29;20334;-65
2023/07/03 11:55:18;;;;;;;6.15;1.15;;;14.30;99.90;;;;;;4853953;29;20048;-63
2023/07/03 11:57:54;;;;;;;5.50;0.95;;;14.20;99.90;;;;;;4856972;29;20494;-63
2023/07/03 12:00:41;;;;;;;5.22;0.98;;;14.10;99.90;;;;;;4839803;29;20050;-62
2023/07/03 12:03:09;;;;;;;3.70;0.85;;;13.90;99.90;;;;;;4847409;29;20661;-61
2023/07/03 12:05:46;;;;;;;4.03;1.00;;;13.90;99.90;;;;;;4858000;29;20502;-65
2023/07/03 12:08:18;;;;;;;4.35;1.33;;;13.90;99.90;;;;;;4855116;29;20430;-60
2023/07/03 12:10:54;;;;;;;4.32;1.40;;;14.00;99.90;;;;;;4857530;29;20050;-60
2023/07/03 12:13:29;;;;;;;2.45;1.00;;;14.00;99.90;;;;;;4861949;29;20083;-62
2023/07/03 12:15:59;;;;;;;2.88;1.25;;;14.20;99.90;;;;;;4857898;29;20046;-65
2023/07/03 12:18:27;;;;;;;2.70;1.10;;;14.20;99.90;;;;;;4857426;29;20053;-71
2023/07/03 12:21:00;;;;;;;3.28;0.80;;;14.20;99.90;;;;;;4856715;29;20592;-70
2023/07/03 12:23:40;;;;;;;1.98;0.73;;;14.10;99.90;;;;;;4854620;29;20057;-71
2023/07/03 12:26:15;;;;;;;1.15;0.50;;;14.10;99.90;;;;;;4857588;29;20491;-73
2023/07/03 12:28:44;;;;;;;2.20;0.85;;;14.10;99.90;;;;;;4857466;29;20049;-71
2023/07/03 12:31:13;;;;;;;2.17;1.00;;;14.10;99.90;;;;;;4848804;29;20409;-72
2023/07/03 12:37:55;;;;;;;4.78;1.60;;;14.30;99.90;;;;;;4855014;29;20071;-73
2023/07/03 12:40:24;;;;;;;5.45;3.53;;;14.30;99.90;;;;;;4856069;29;20054;-74
2023/07/03 12:42:55;;;;;;;5.57;3.50;;;14.30;99.90;;;;;;4855506;29;20053;-68
2023/07/03 12:45:30;;;;;;;6.15;3.70;;;14.30;99.90;;;;;;4857237;29;20512;-70
2023/07/03 12:48:09;;;;;;;7.43;4.43;;;14.30;99.90;;;;;;4856746;29;20390;-70
2023/07/03 12:50:57;;;;;;;8.00;4.20;;;14.60;99.90;;;;;;4857006;29;20057;-64
2023/07/03 12:53:32;;;;;;;5.15;3.17;;;15.00;99.90;;;;;;4852295;29;20049;-71
2023/07/03 12:56:05;;;;;;;6.88;3.50;;;15.30;99.90;;;;;;4838395;29;20064;-70
2023/07/03 12:58:33;;;;;;;5.82;3.33;;;15.60;99.90;;;;;;4843588;29;20053;-61
2023/07/03 13:01:06;;;;;;;5.82;3.95;;;15.60;99.90;;;;;;4855241;29;20057;-62
2023/07/03 13:03:41;;;;;;;6.85;4.13;;;15.60;99.90;;;;;;4855971;29;20524;-66
2023/07/03 13:06:17;;;;;;;8.13;4.93;;;15.60;99.90;;;;;;4855728;29;20041;-70
2023/07/03 13:08:47;;;;;;;7.82;5.55;;;15.50;99.90;;;;;;4850959;29;20072;-70
2023/07/03 13:11:14;;;;;;;4.55;3.28;;;15.40;99.90;;;;;;4854765;29;20064;-70
2023/07/03 13:13:42;;;;;;;5.13;3.10;;;15.60;99.90;;;;;;4862139;29;20434;-69
2023/07/03 13:16:22;;;;;;;5.63;3.13;;;15.80;99.90;;;;;;4855514;29;20061;-66
2023/07/03 13:19:03;;;;;;;7.88;3.53;;;15.80;99.90;;;;;;4855132;29;20088;-70